createdAt,value
2022-10-19T00:02:11.367Z,25.09
2022-10-19T00:04:37.979Z,25.13
2022-10-19T00:07:04.562Z,25.16
2022-10-19T00:09:31.154Z,25.19
2022-10-19T00:11:57.718Z,25.26
2022-10-19T00:14:24.774Z,25.30
2022-10-19T00:16:53.134Z,25.30
2022-10-19T00:19:25.395Z,25.47
2022-10-19T00:21:52.552Z,25.59
2022-10-19T00:24:20.561Z,25.74
2022-10-19T00:26:47.355Z,25.85
2022-10-19T00:29:15.533Z,25.80
2022-10-19T00:31:42.666Z,25.74
2022-10-19T00:34:09.850Z,25.79
2022-10-19T00:36:40.061Z,25.61
2022-10-19T00:39:10.713Z,25.52
2022-10-19T00:41:38.559Z,25.47
2022-10-19T00:44:28.319Z,25.14
2022-10-19T00:46:59.847Z,24.73
2022-10-19T00:49:31.405Z,24.67
2022-10-19T00:52:21.069Z,24.54
2022-10-19T00:54:50.189Z,24.40
2022-10-19T00:57:17.448Z,24.38
2022-10-19T00:59:47.289Z,24.66
2022-10-19T01:02:13.911Z,24.65
2022-10-19T01:04:44.554Z,24.94
2022-10-19T01:07:12.314Z,25.29
2022-10-19T01:09:38.954Z,25.38
2022-10-19T01:12:40.695Z,25.28
2022-10-19T01:15:42.207Z,25.57
2022-10-19T01:18:20.332Z,25.68
2022-10-19T01:21:07.945Z,25.75
2022-10-19T01:23:34.419Z,25.78
2022-10-19T01:26:11.941Z,25.75
2022-10-19T01:29:08.428Z,25.62
2022-10-19T01:31:56.647Z,25.76
2022-10-19T01:34:36.646Z,25.77
2022-10-19T01:37:27.790Z,25.70
2022-10-19T01:40:12.390Z,25.83
2022-10-19T01:42:46.697Z,25.70
2022-10-19T01:45:50.349Z,25.70
2022-10-19T01:48:21.842Z,25.48
2022-10-19T01:51:08.179Z,25.58
2022-10-19T01:53:43.873Z,25.60
2022-10-19T01:56:12.774Z,25.62
2022-10-19T01:58:44.113Z,25.80
2022-10-19T02:01:13.490Z,25.63
2022-10-19T02:03:41.192Z,25.75
2022-10-19T02:06:11.134Z,25.48
2022-10-19T02:08:45.900Z,25.39
2022-10-19T02:11:12.703Z,25.51
2022-10-19T02:13:41.041Z,25.56
2022-10-19T02:16:21.977Z,25.51
2022-10-19T02:18:51.510Z,25.37
2022-10-19T02:21:19.141Z,25.57
2022-10-19T02:23:46.739Z,25.32
2022-10-19T02:26:14.257Z,25.54
2022-10-19T02:28:41.343Z,25.54
2022-10-19T02:31:07.924Z,25.50
2022-10-19T02:33:34.936Z,25.84
2022-10-19T02:36:02.138Z,25.81
2022-10-19T02:38:29.100Z,25.57
2022-10-19T02:41:34.525Z,25.59
2022-10-19T02:44:06.120Z,25.55
2022-10-19T02:46:42.742Z,25.85
2022-10-19T02:49:11.875Z,26.05
2022-10-19T02:52:00.731Z,25.97
2022-10-19T02:54:28.522Z,25.58
2022-10-19T02:56:55.886Z,25.76
2022-10-19T02:59:22.718Z,25.92
2022-10-19T03:01:49.573Z,25.95
2022-10-19T03:04:16.357Z,26.13
2022-10-19T03:06:43.670Z,26.19
2022-10-19T03:09:10.584Z,26.20
2022-10-19T03:11:37.886Z,25.96
2022-10-19T03:14:04.398Z,26.11
2022-10-19T03:16:30.929Z,26.11
2022-10-19T03:18:57.450Z,26.33
2022-10-19T03:21:24.503Z,26.30
2022-10-19T03:23:51.476Z,25.52
2022-10-19T03:26:18.405Z,25.37
2022-10-19T03:28:45.097Z,25.71
2022-10-19T03:31:12.394Z,26.06
2022-10-19T03:33:38.933Z,26.09
2022-10-19T03:36:21.707Z,26.25
2022-10-19T03:38:52.784Z,26.28
2022-10-19T03:41:21.377Z,25.80
2022-10-19T03:43:48.010Z,26.07
2022-10-19T03:46:15.448Z,26.17
2022-10-19T03:48:42.100Z,26.18
2022-10-19T03:51:13.946Z,26.13
2022-10-19T03:53:41.325Z,25.85
2022-10-19T03:56:11.846Z,25.73
2022-10-19T03:58:40.599Z,25.75
2022-10-19T04:01:10.680Z,25.55
2022-10-19T04:03:37.453Z,25.51
2022-10-19T04:06:06.803Z,25.60
2022-10-19T04:08:33.595Z,25.48
2022-10-19T04:11:02.039Z,25.68
2022-10-19T04:13:29.235Z,25.50
2022-10-19T04:15:55.964Z,25.13
2022-10-19T04:18:22.738Z,25.18
2022-10-19T04:20:49.374Z,25.52
2022-10-19T04:25:43.925Z,25.36
2022-10-19T04:28:10.450Z,25.29
2022-10-19T04:30:37.019Z,25.18
2022-10-19T04:33:03.683Z,25.28
2022-10-19T04:35:30.606Z,25.31
2022-10-19T04:37:59.217Z,25.05
2022-10-19T04:40:26.364Z,25.17
2022-10-19T04:42:52.891Z,25.05
2022-10-19T04:45:19.453Z,25.10
2022-10-19T04:47:46.359Z,24.51
2022-10-19T04:50:12.882Z,24.85
2022-10-19T04:52:39.434Z,25.04
2022-10-19T04:55:06.218Z,25.29
2022-10-19T04:57:33.083Z,25.15
2022-10-19T04:59:59.768Z,25.12
2022-10-19T05:02:26.278Z,25.35
2022-10-19T05:04:52.808Z,25.32
2022-10-19T05:07:19.344Z,25.28
2022-10-19T05:09:46.080Z,24.94
2022-10-19T05:12:12.611Z,25.15
2022-10-19T05:14:42.629Z,25.03
2022-10-19T05:17:09.731Z,24.35
2022-10-19T05:19:36.266Z,23.79
2022-10-19T05:22:03.031Z,24.14
2022-10-19T05:24:31.163Z,23.86
2022-10-19T05:26:57.768Z,24.00
2022-10-19T05:29:24.453Z,24.43
2022-10-19T05:31:51.027Z,24.70
2022-10-19T05:34:17.593Z,24.88
2022-10-19T05:36:44.110Z,25.11
2022-10-19T05:39:16.659Z,25.33
2022-10-19T05:41:45.181Z,25.23
2022-10-19T05:44:17.239Z,25.44
2022-10-19T05:46:45.314Z,25.55
2022-10-19T05:49:13.125Z,25.59
2022-10-19T05:51:39.959Z,25.45
2022-10-19T05:54:07.876Z,25.61
2022-10-19T05:56:34.938Z,25.77
2022-10-19T05:59:05.217Z,25.60
2022-10-19T06:01:33.090Z,25.88
2022-10-19T06:04:00.987Z,25.82
2022-10-19T06:06:28.176Z,25.80
2022-10-19T06:08:56.315Z,25.86
2022-10-19T06:11:26.434Z,26.11
2022-10-19T06:13:58.585Z,26.10
2022-10-19T06:16:26.836Z,26.16
2022-10-19T06:18:54.477Z,26.24
2022-10-19T06:21:24.074Z,26.19
2022-10-19T06:23:55.701Z,25.56
2022-10-19T06:26:23.434Z,25.47
2022-10-19T06:28:50.050Z,25.70
2022-10-19T06:31:17.457Z,25.84
2022-10-19T06:33:47.250Z,26.00
2022-10-19T06:36:19.364Z,26.18
2022-10-19T06:38:46.813Z,26.24
2022-10-19T06:41:13.502Z,26.30
2022-10-19T06:43:42.762Z,26.36
2022-10-19T06:46:17.387Z,26.05
2022-10-19T06:48:43.943Z,26.16
2022-10-19T06:51:10.539Z,26.26
2022-10-19T06:53:37.269Z,26.40
2022-10-19T06:56:06.077Z,26.50
2022-10-19T06:58:39.929Z,26.67
2022-10-19T07:01:08.148Z,26.42
2022-10-19T07:03:36.570Z,26.40
2022-10-19T07:06:08.553Z,26.39
2022-10-19T07:08:37.145Z,26.51
2022-10-19T07:11:06.645Z,26.41
2022-10-19T07:13:33.992Z,26.16
2022-10-19T07:16:05.537Z,26.07
2022-10-19T07:18:34.048Z,26.05
2022-10-19T07:21:03.175Z,25.77
2022-10-19T07:23:31.350Z,25.05
2022-10-19T07:26:02.140Z,24.91
2022-10-19T07:28:29.761Z,24.58
2022-10-19T07:30:56.417Z,24.60
2022-10-19T07:33:23.316Z,25.00
2022-10-19T07:35:49.909Z,25.47
2022-10-19T07:38:16.482Z,25.89
2022-10-19T07:40:46.400Z,26.20
2022-10-19T07:43:14.075Z,26.69
2022-10-19T07:45:40.705Z,26.77
2022-10-19T07:48:07.295Z,25.88
2022-10-19T07:50:33.914Z,26.22
2022-10-19T07:53:00.490Z,25.83
2022-10-19T07:55:27.003Z,25.71
2022-10-19T07:57:53.656Z,25.94
2022-10-19T08:00:20.233Z,26.62
2022-10-19T08:03:12.075Z,26.65
2022-10-19T08:05:34.265Z,26.89
2022-10-19T08:08:00.891Z,26.47
2022-10-19T08:10:28.148Z,26.72
2022-10-19T08:12:54.919Z,26.60
2022-10-19T08:15:21.804Z,25.40
2022-10-19T08:17:48.428Z,25.43
2022-10-19T08:20:15.014Z,25.29
2022-10-19T08:22:41.858Z,25.78
2022-10-19T08:25:08.527Z,25.17
2022-10-19T08:30:07.033Z,24.82
2022-10-19T08:32:33.804Z,24.58
2022-10-19T08:35:00.522Z,24.98
2022-10-19T08:37:43.725Z,25.84
2022-10-19T08:40:23.298Z,26.19
2022-10-19T08:43:04.236Z,25.99
2022-10-19T08:45:46.883Z,26.29
2022-10-19T08:48:29.613Z,26.83
2022-10-19T08:50:58.751Z,26.56
2022-10-19T08:53:45.742Z,25.98
2022-10-19T08:56:38.770Z,27.25
2022-10-19T08:59:16.925Z,27.58
2022-10-19T09:02:01.804Z,27.79
2022-10-19T09:04:36.906Z,27.97
2022-10-19T09:07:09.844Z,28.07
2022-10-19T09:12:24.736Z,27.66
2022-10-19T09:14:57.667Z,28.07
2022-10-19T09:17:25.305Z,28.79
2022-10-19T09:19:52.570Z,29.31
2022-10-19T09:22:25.102Z,30.54
2022-10-19T09:25:00.360Z,30.55
2022-10-19T09:27:36.580Z,30.32
2022-10-19T09:30:16.813Z,30.44
2022-10-19T09:32:43.514Z,30.00
2022-10-19T09:35:29.042Z,29.81
2022-10-19T09:37:56.558Z,30.66
2022-10-19T09:40:29.434Z,30.97
2022-10-19T09:43:02.858Z,29.84
2022-10-19T09:45:59.716Z,29.94
2022-10-19T09:48:38.156Z,29.73
2022-10-19T09:51:13.221Z,30.50
2022-10-19T09:53:45.187Z,30.52
2022-10-19T09:56:19.668Z,29.96
2022-10-19T09:58:57.458Z,30.49
2022-10-19T10:01:40.205Z,30.10
2022-10-19T10:04:17.638Z,30.30
2022-10-19T10:06:47.878Z,31.08
2022-10-19T10:09:19.468Z,31.66
2022-10-19T10:11:49.490Z,31.92
2022-10-19T10:14:23.682Z,31.92
2022-10-19T10:17:01.505Z,32.00
2022-10-19T10:19:30.935Z,32.35
2022-10-19T10:21:59.567Z,32.47
2022-10-19T10:24:34.198Z,31.54
2022-10-19T10:27:06.583Z,31.67
2022-10-19T10:29:35.716Z,31.99
2022-10-19T10:32:13.150Z,31.15
2022-10-19T10:34:50.576Z,31.68
2022-10-19T10:37:42.484Z,31.61
2022-10-19T10:40:27.882Z,32.00
2022-10-19T10:42:58.663Z,32.42
2022-10-19T10:46:04.221Z,33.14
2022-10-19T10:48:38.672Z,32.97
2022-10-19T10:51:19.760Z,32.70
2022-10-19T10:53:46.995Z,31.62
2022-10-19T10:56:26.170Z,30.59
2022-10-19T10:59:20.519Z,30.53
2022-10-19T11:02:02.757Z,30.00
2022-10-19T11:04:38.834Z,29.45
2022-10-19T11:07:21.535Z,29.32
2022-10-19T11:09:54.452Z,29.43
2022-10-19T11:12:35.055Z,28.96
2022-10-19T11:15:22.714Z,29.50
2022-10-19T11:17:59.824Z,29.99
2022-10-19T11:20:30.678Z,30.09
2022-10-19T11:23:23.485Z,29.73
2022-10-19T11:26:10.549Z,29.38
2022-10-19T11:28:39.967Z,28.98
2022-10-19T11:31:16.046Z,28.98
2022-10-19T11:34:06.889Z,29.22
2022-10-19T11:37:10.536Z,29.28
2022-10-19T11:39:57.530Z,28.76
2022-10-19T11:42:54.936Z,28.68
2022-10-19T11:45:41.258Z,28.56
2022-10-19T11:48:26.201Z,28.65
2022-10-19T11:51:26.747Z,29.02
2022-10-19T11:54:05.195Z,29.16
2022-10-19T11:57:01.911Z,28.80
2022-10-19T11:59:47.989Z,28.36
2022-10-19T12:02:23.741Z,28.73
2022-10-19T12:05:01.313Z,28.75
2022-10-19T12:07:53.461Z,28.78
2022-10-19T12:10:38.503Z,28.98
2022-10-19T12:13:10.727Z,29.00
2022-10-19T12:15:48.439Z,29.67
2022-10-19T12:18:31.913Z,28.83
2022-10-19T12:21:02.808Z,28.28
2022-10-19T12:23:36.329Z,28.19
2022-10-19T12:26:07.353Z,28.31
2022-10-19T12:28:38.692Z,27.87
2022-10-19T12:31:06.769Z,28.26
2022-10-19T12:33:36.589Z,28.77
2022-10-19T12:36:15.441Z,28.63
2022-10-19T12:39:00.002Z,29.34
2022-10-19T12:41:36.186Z,30.02
2022-10-19T12:47:00.966Z,30.02
2022-10-19T12:49:30.727Z,30.76
2022-10-19T12:51:59.884Z,30.81
2022-10-19T12:54:29.258Z,30.97
2022-10-19T12:56:58.170Z,30.45
2022-10-19T12:59:36.321Z,29.90
2022-10-19T13:02:20.452Z,29.81
2022-10-19T13:04:54.012Z,29.53
2022-10-19T13:07:20.847Z,29.13
2022-10-19T13:09:48.695Z,29.02
2022-10-19T13:12:19.462Z,28.84
2022-10-19T13:15:01.314Z,28.10
2022-10-19T13:17:52.204Z,28.71
2022-10-19T13:20:18.726Z,28.32
2022-10-19T13:22:49.830Z,28.87
2022-10-19T13:25:16.381Z,29.47
2022-10-19T13:27:44.877Z,29.97
2022-10-19T13:30:39.423Z,29.89
2022-10-19T13:33:34.736Z,30.13
2022-10-19T13:36:04.206Z,30.19
2022-10-19T13:38:59.086Z,30.38
2022-10-19T13:41:28.050Z,30.13
2022-10-19T13:44:11.939Z,30.03
2022-10-19T13:46:43.748Z,29.60
2022-10-19T13:49:47.222Z,29.59
2022-10-19T13:52:35.788Z,28.84
2022-10-19T13:55:24.721Z,29.45
2022-10-19T13:58:29.975Z,29.63
2022-10-19T14:01:41.416Z,29.44
2022-10-19T14:04:51.798Z,29.73
2022-10-19T14:07:29.500Z,29.60
2022-10-19T14:10:04.770Z,29.50
2022-10-19T14:12:34.954Z,29.88
2022-10-19T14:15:16.631Z,29.47
2022-10-19T14:17:43.357Z,28.40
2022-10-19T14:20:25.294Z,28.21
2022-10-19T14:22:51.920Z,28.73
2022-10-19T14:25:24.144Z,28.40
2022-10-19T14:27:58.214Z,27.77
2022-10-19T14:30:28.396Z,27.90
2022-10-19T14:32:59.444Z,28.01
2022-10-19T14:35:33.715Z,27.93
2022-10-19T14:38:00.531Z,28.34
2022-10-19T14:40:37.264Z,28.50
2022-10-19T14:43:20.232Z,29.01
2022-10-19T14:46:06.138Z,28.88
2022-10-19T14:48:36.889Z,28.88
2022-10-19T14:51:15.230Z,29.06
2022-10-19T14:53:59.066Z,28.87
2022-10-19T14:56:47.254Z,28.24
2022-10-19T14:59:27.266Z,28.22
2022-10-19T15:01:57.028Z,28.07
2022-10-19T15:04:28.803Z,28.38
2022-10-19T15:06:56.195Z,28.37
2022-10-19T15:09:37.026Z,28.47
2022-10-19T15:12:17.006Z,28.32
2022-10-19T15:14:44.970Z,28.57
2022-10-19T15:17:22.332Z,28.93
2022-10-19T15:19:48.903Z,29.15
2022-10-19T15:22:21.646Z,29.33
2022-10-19T15:25:14.313Z,29.36
2022-10-19T15:27:46.182Z,29.27
2022-10-19T15:30:18.497Z,29.12
2022-10-19T15:33:00.024Z,29.37
2022-10-19T15:35:31.170Z,29.50
2022-10-19T15:38:02.894Z,29.53
2022-10-19T15:40:36.086Z,29.46
2022-10-19T15:43:24.959Z,29.28
2022-10-19T15:46:24.250Z,28.66
2022-10-19T15:48:59.241Z,28.48
2022-10-19T15:51:25.828Z,28.47
2022-10-19T15:53:56.612Z,28.50
2022-10-19T15:56:26.014Z,28.23
2022-10-19T15:58:54.803Z,28.52
2022-10-19T16:01:24.348Z,28.45
2022-10-19T16:03:50.908Z,28.17
2022-10-19T16:06:18.619Z,28.08
2022-10-19T16:08:46.227Z,28.14
2022-10-19T16:11:14.678Z,28.15
2022-10-19T16:13:41.281Z,27.95
2022-10-19T16:16:12.281Z,28.00
2022-10-19T16:18:39.266Z,28.08
2022-10-19T16:21:07.240Z,28.00
2022-10-19T16:23:39.392Z,27.94
2022-10-19T16:26:08.573Z,27.85
2022-10-19T16:28:35.972Z,27.83
2022-10-19T16:31:02.875Z,27.82
2022-10-19T16:33:29.409Z,27.74
2022-10-19T16:35:55.962Z,27.72
2022-10-19T16:38:23.080Z,27.72
2022-10-19T16:40:49.838Z,27.58
2022-10-19T16:43:16.601Z,27.59
2022-10-19T16:45:43.758Z,27.43
2022-10-19T16:48:13.178Z,27.43
2022-10-19T16:50:39.795Z,27.30
2022-10-19T16:53:10.443Z,27.21
2022-10-19T16:55:38.504Z,27.06
2022-10-19T16:58:05.300Z,27.07
2022-10-19T17:00:33.824Z,26.95
2022-10-19T17:03:00.372Z,26.56
2022-10-19T17:05:26.965Z,26.36
2022-10-19T17:07:53.672Z,26.41
2022-10-19T17:10:20.710Z,26.37
2022-10-19T17:12:47.437Z,26.33
2022-10-19T17:18:01.077Z,26.28
2022-10-19T17:20:27.623Z,26.19
2022-10-19T17:22:54.210Z,26.05
2022-10-19T17:25:20.758Z,25.84
2022-10-19T17:27:50.789Z,25.72
2022-10-19T17:30:18.536Z,25.72
2022-10-19T17:32:45.109Z,25.56
2022-10-19T17:35:11.695Z,25.41
2022-10-19T17:37:38.442Z,25.40
2022-10-19T17:40:05.734Z,25.45
2022-10-19T17:42:34.294Z,25.42
2022-10-19T17:45:01.599Z,25.29
2022-10-19T17:47:28.173Z,25.29
2022-10-19T17:49:54.948Z,24.80
2022-10-19T17:52:21.611Z,24.85
2022-10-19T17:55:11.059Z,24.84
2022-10-19T17:57:35.998Z,24.75
2022-10-19T18:00:03.969Z,24.68
2022-10-19T18:02:39.822Z,24.61
2022-10-19T18:05:06.724Z,24.50
2022-10-19T18:07:33.634Z,24.46
2022-10-19T18:10:00.303Z,24.33
2022-10-19T18:12:26.900Z,24.19
2022-10-19T18:14:53.500Z,24.12
2022-10-19T18:17:23.983Z,24.11
2022-10-19T18:19:53.509Z,23.96
2022-10-19T18:22:21.804Z,23.92
2022-10-19T18:24:49.474Z,23.89
2022-10-19T18:27:16.157Z,23.83
2022-10-19T18:29:44.264Z,23.66
2022-10-19T18:32:11.890Z,23.61
2022-10-19T18:34:38.892Z,23.51
2022-10-19T18:37:05.612Z,23.29
2022-10-19T18:39:32.227Z,23.49
2022-10-19T18:41:58.945Z,23.35
2022-10-19T18:44:27.845Z,23.17
2022-10-19T18:46:57.603Z,23.04
2022-10-19T18:49:24.931Z,23.23
2022-10-19T18:51:55.107Z,23.35
2022-10-19T18:54:22.685Z,23.35
2022-10-19T18:56:49.225Z,23.41
2022-10-19T18:59:16.605Z,23.45
2022-10-19T19:01:43.302Z,22.96
2022-10-19T19:04:10.386Z,22.57
2022-10-19T19:06:38.007Z,22.50
2022-10-19T19:09:10.948Z,22.53
2022-10-19T19:11:40.743Z,22.38
2022-10-19T19:14:12.642Z,22.52
2022-10-19T19:16:40.487Z,22.65
2022-10-19T19:19:07.494Z,21.96
2022-10-19T19:21:36.374Z,22.30
2022-10-19T19:24:06.151Z,22.26
2022-10-19T19:26:41.017Z,22.27
2022-10-19T19:29:07.760Z,22.30
2022-10-19T19:31:34.291Z,21.84
2022-10-19T19:34:01.432Z,21.05
2022-10-19T19:36:28.610Z,21.04
2022-10-19T19:38:56.902Z,20.46
2022-10-19T19:41:24.457Z,20.77
2022-10-19T19:43:51.042Z,20.35
2022-10-19T19:46:19.127Z,20.04
2022-10-19T19:48:47.908Z,20.10
2022-10-19T19:51:19.983Z,19.81
2022-10-19T19:53:47.778Z,20.23
2022-10-19T19:56:15.560Z,20.67
2022-10-19T19:58:43.397Z,20.62
2022-10-19T20:01:21.023Z,20.87
2022-10-19T20:03:48.331Z,21.16
2022-10-19T20:06:19.598Z,21.08
2022-10-19T20:08:48.866Z,20.80
2022-10-19T20:11:17.434Z,20.87
2022-10-19T20:13:45.553Z,21.01
2022-10-19T20:16:17.461Z,21.12
2022-10-19T20:18:45.742Z,21.03
2022-10-19T20:21:12.917Z,21.33
2022-10-19T20:23:40.119Z,21.50
2022-10-19T20:26:08.946Z,21.46
2022-10-19T20:28:37.003Z,21.37
2022-10-19T20:31:06.809Z,21.41
2022-10-19T20:33:35.347Z,21.82
2022-10-19T20:36:08.128Z,21.70
2022-10-19T20:38:37.042Z,21.76
2022-10-19T20:41:07.780Z,21.35
2022-10-19T20:43:36.192Z,21.26
2022-10-19T20:46:13.086Z,21.36
2022-10-19T20:48:40.391Z,21.05
2022-10-19T20:51:14.026Z,20.98
2022-10-19T20:53:41.514Z,20.83
2022-10-19T20:56:10.244Z,20.79
2022-10-19T20:58:43.470Z,20.94
2022-10-19T21:01:13.454Z,20.80
2022-10-19T21:03:44.767Z,20.86
2022-10-19T21:06:11.339Z,21.17
2022-10-19T21:08:38.086Z,21.35
2022-10-19T21:11:25.370Z,21.56
2022-10-19T21:14:01.727Z,21.63
2022-10-19T21:16:30.171Z,21.86
2022-10-19T21:18:57.089Z,21.80
2022-10-19T21:21:27.201Z,21.96
2022-10-19T21:23:57.277Z,22.13
2022-10-19T21:26:28.547Z,22.13
2022-10-19T21:28:55.599Z,22.16
2022-10-19T21:31:24.200Z,22.29
2022-10-19T21:33:51.716Z,22.21
2022-10-19T21:36:19.859Z,22.06
2022-10-19T21:38:46.886Z,22.22
2022-10-19T21:41:16.296Z,21.95
2022-10-19T21:43:43.125Z,22.10
2022-10-19T21:46:15.297Z,21.73
2022-10-19T21:48:42.679Z,21.53
2022-10-19T21:51:41.635Z,21.45
2022-10-19T21:54:12.292Z,21.52
2022-10-19T21:56:38.872Z,21.35
2022-10-19T21:59:05.643Z,21.13
2022-10-19T22:01:38.665Z,20.94
2022-10-19T22:04:12.012Z,20.29
2022-10-19T22:06:39.400Z,19.39
2022-10-19T22:09:07.970Z,18.82
2022-10-19T22:11:34.825Z,19.05
2022-10-19T22:14:02.966Z,18.87
2022-10-19T22:16:30.510Z,18.75
2022-10-19T22:18:57.821Z,19.29
2022-10-19T22:21:29.926Z,18.91
2022-10-19T22:24:02.610Z,19.11
2022-10-19T22:26:32.548Z,19.14
2022-10-19T22:29:00.900Z,18.72
2022-10-19T22:31:29.496Z,18.73
2022-10-19T22:33:56.774Z,18.64
2022-10-19T22:36:23.339Z,18.56
2022-10-19T22:38:50.341Z,18.49
2022-10-19T22:41:16.978Z,18.70
2022-10-19T22:43:43.501Z,18.76
2022-10-19T22:46:10.038Z,18.96
2022-10-19T22:48:36.827Z,19.50
2022-10-19T22:51:03.485Z,19.48
2022-10-19T22:53:29.988Z,19.95
2022-10-19T22:55:56.580Z,19.59
2022-10-19T22:58:23.133Z,20.12
2022-10-19T23:01:13.438Z,20.69
2022-10-19T23:03:41.242Z,20.49
2022-10-19T23:06:09.178Z,20.49
2022-10-19T23:08:36.048Z,20.20
2022-10-19T23:11:02.653Z,19.92
2022-10-19T23:13:29.186Z,19.81
2022-10-19T23:15:55.697Z,19.57
2022-10-19T23:18:22.225Z,20.04
2022-10-19T23:20:59.037Z,19.74
2022-10-19T23:23:26.708Z,19.61
2022-10-19T23:26:01.444Z,19.32
2022-10-19T23:28:29.620Z,19.45
2022-10-19T23:30:58.460Z,19.48
2022-10-19T23:33:25.933Z,20.12
2022-10-19T23:35:52.985Z,19.59
2022-10-19T23:38:19.509Z,19.84
2022-10-19T23:40:46.034Z,19.25
2022-10-19T23:43:12.558Z,19.22
2022-10-19T23:45:39.597Z,19.97
2022-10-19T23:48:06.302Z,19.90
2022-10-19T23:50:32.887Z,19.84
2022-10-19T23:52:59.431Z,19.73
2022-10-19T23:55:25.989Z,19.14
2022-10-19T23:57:52.570Z,19.28
